Jewell, Ohio
Current Conditions -  °F | °C
As of 3:25 PM on Thursday 29 Jan 2015 (Local Time) from KDFI Reporting Station
Overcast Overcast  
Wind Chill: 27°   Ceiling: 2100
Heat Index: 35°   Visibility: 7mi
Dew Point: 31°   Wind: 12mph
Humidity: 85%   Direction: 300°WNW
Pressure: 29.82"   Gusts: NA
Location:  41.33°N, 84.29°W
Report Text: KDFI 292025Z AUTO 30010KT 7SM BKN021 OVC036 02/M01 A2982 RMK AO2 SNE03 PRESRR P0000 T00171006
Loading
Personal Weather Stations






























Interactive Weather Map New forecast layout! Learn more

10-Day Weather Forecast

Advertisements
Track Severe Weather on mobile